Time;durP1;ratioP1;P1;durP2;ratioP2;P2;SDS_P1;SDS_P2;PMS_P1;PMS_P2;Temp;Humidity;BMP_temperature;BMP_pressure;BME280_temperature;BME280_humidity;BME280_pressure;Samples;Min_cycle;Max_cycle;Signal;HPM_P1;HPM_P2
2023/09/03 00:01:01;;;;;;;5.45;3.50;;;15.90;99.90;;;;;;5010103;28;20048;-65
2023/09/03 00:03:28;;;;;;;4.88;2.95;;;15.90;99.90;;;;;;5007302;28;20582;-66
2023/09/03 00:05:56;;;;;;;4.90;3.50;;;15.90;99.90;;;;;;5009670;28;20125;-66
2023/09/03 00:08:28;;;;;;;4.63;3.50;;;15.90;99.90;;;;;;5004750;28;20044;-65
2023/09/03 00:11:00;;;;;;;5.30;3.45;;;16.00;99.90;;;;;;5012025;28;20404;-64
2023/09/03 00:13:32;;;;;;;4.05;3.50;;;16.00;99.90;;;;;;5001923;28;20053;-66
2023/09/03 00:16:03;;;;;;;4.93;3.67;;;16.00;99.90;;;;;;5008396;28;20049;-65
2023/09/03 00:18:37;;;;;;;4.22;3.40;;;16.00;99.90;;;;;;5008038;28;20399;-65
2023/09/03 00:21:08;;;;;;;;;;;16.00;99.90;;;;;;5010608;28;20521;-65
2023/09/03 00:23:40;;;;;;;4.82;3.78;;;16.00;99.90;;;;;;5005302;28;19922;-66
2023/09/03 00:26:17;;;;;;;4.85;3.58;;;16.00;99.90;;;;;;5005569;28;20057;-66
2023/09/03 00:28:55;;;;;;;4.75;2.90;;;16.00;99.90;;;;;;5021652;28;20085;-65
2023/09/03 00:31:23;;;;;;;4.57;3.90;;;16.00;99.90;;;;;;5004849;28;20117;-65
2023/09/03 00:33:55;;;;;;;;;;;16.00;99.90;;;;;;5000059;28;20054;-65
2023/09/03 00:36:27;;;;;;;4.18;3.40;;;16.00;99.90;;;;;;5007367;28;19975;-65
2023/09/03 00:38:54;;;;;;;4.43;3.00;;;16.00;99.90;;;;;;4999698;28;20042;-65
2023/09/03 00:41:26;;;;;;;4.30;3.38;;;15.90;99.90;;;;;;5010601;28;20076;-65
2023/09/03 00:43:58;;;;;;;4.75;3.58;;;15.80;99.90;;;;;;5005690;28;20467;-65
2023/09/03 00:46:31;;;;;;;4.68;2.97;;;15.80;99.90;;;;;;5010103;28;20041;-66
2023/09/03 00:49:03;;;;;;;7.03;3.50;;;15.80;99.90;;;;;;4994687;28;20526;-65
2023/09/03 00:51:36;;;;;;;4.22;3.53;;;15.70;99.90;;;;;;4997098;28;20521;-65
2023/09/03 00:54:05;;;;;;;4.25;2.83;;;15.70;99.90;;;;;;5007164;28;20578;-65
2023/09/03 00:56:38;;;;;;;3.95;2.95;;;15.70;99.90;;;;;;5000558;28;20037;-66
2023/09/03 00:59:10;;;;;;;;;;;15.70;99.90;;;;;;5010396;28;20107;-65
2023/09/03 01:01:42;;;;;;;5.38;3.50;;;15.70;99.90;;;;;;5009745;28;19925;-66
2023/09/03 01:04:10;;;;;;;5.63;2.95;;;15.70;99.90;;;;;;5000788;28;20066;-65
2023/09/03 01:06:41;;;;;;;4.53;3.08;;;15.60;99.90;;;;;;5006915;28;20049;-66
2023/09/03 01:09:14;;;;;;;4.28;2.85;;;15.50;99.90;;;;;;5008517;28;20038;-65
2023/09/03 01:12:28;;;;;;;5.32;3.35;;;15.50;99.90;;;;;;5007169;28;20544;-65
2023/09/03 01:15:09;;;;;;;7.82;3.35;;;15.50;99.90;;;;;;5006727;28;20207;-65
2023/09/03 01:18:10;;;;;;;5.00;3.05;;;15.60;99.90;;;;;;5007657;28;20108;-65
2023/09/03 01:20:58;;;;;;;3.63;3.13;;;15.60;99.90;;;;;;4990905;28;20057;-65
2023/09/03 01:23:53;;;;;;;4.07;3.77;;;15.60;99.90;;;;;;4992029;28;20901;-65
2023/09/03 01:26:57;;;;;;;3.58;3.15;;;15.60;99.90;;;;;;5007580;28;20296;-66
2023/09/03 01:29:30;;;;;;;3.55;3.10;;;15.60;99.90;;;;;;4990878;28;20033;-65
2023/09/03 01:32:03;;;;;;;7.55;3.83;;;15.60;99.90;;;;;;5008128;28;20034;-65
2023/09/03 01:34:30;;;;;;;4.72;3.08;;;15.70;99.90;;;;;;5009666;28;20066;-65
2023/09/03 01:37:04;;;;;;;3.97;3.17;;;15.70;99.90;;;;;;5005472;28;20045;-65
2023/09/03 01:39:35;;;;;;;3.60;3.08;;;15.70;99.90;;;;;;5009076;28;20058;-66
2023/09/03 01:42:07;;;;;;;5.00;3.53;;;15.70;99.90;;;;;;4998811;28;20515;-65
2023/09/03 01:44:40;;;;;;;4.00;2.95;;;15.60;99.90;;;;;;5006482;28;20108;-66
2023/09/03 01:47:27;;;;;;;4.90;3.22;;;15.60;99.90;;;;;;5006988;28;20042;-65
2023/09/03 01:50:11;;;;;;;5.45;3.70;;;15.50;99.90;;;;;;4994636;28;20510;-65
2023/09/03 01:53:02;;;;;;;4.45;3.40;;;15.50;99.90;;;;;;5009304;28;20076;-65
2023/09/03 01:55:39;;;;;;;3.30;2.97;;;15.50;99.90;;;;;;5002695;28;20537;-65
2023/09/03 01:58:11;;;;;;;3.50;3.15;;;15.50;99.90;;;;;;5006321;28;20054;-66
2023/09/03 02:00:44;;;;;;;3.95;3.05;;;15.50;99.90;;;;;;4995943;28;20081;-65
2023/09/03 02:03:17;;;;;;;4.18;3.10;;;15.50;99.90;;;;;;5001284;28;20503;-65
2023/09/03 02:05:49;;;;;;;3.70;3.30;;;15.50;99.90;;;;;;4990673;28;20726;-65
2023/09/03 02:08:16;;;;;;;4.13;3.42;;;15.50;99.90;;;;;;4995677;28;20309;-65
2023/09/03 02:10:43;;;;;;;5.05;3.67;;;15.40;99.90;;;;;;5005929;28;20048;-66
2023/09/03 02:13:09;;;;;;;5.10;3.10;;;15.40;99.90;;;;;;5005842;28;20038;-65
2023/09/03 02:15:41;;;;;;;3.42;3.03;;;15.40;99.90;;;;;;5006875;28;20595;-66
2023/09/03 02:18:08;;;;;;;4.15;2.83;;;15.30;99.90;;;;;;5001577;28;20585;-66
2023/09/03 02:20:40;;;;;;;3.45;2.97;;;15.30;99.90;;;;;;5000759;28;20096;-66
2023/09/03 02:23:12;;;;;;;4.15;3.40;;;15.20;99.90;;;;;;4994738;28;20065;-65
2023/09/03 02:25:44;;;;;;;5.45;3.28;;;15.20;99.90;;;;;;5006853;28;20046;-65
2023/09/03 02:28:16;;;;;;;4.30;3.00;;;15.20;99.90;;;;;;5008142;28;20053;-65
2023/09/03 02:30:48;;;;;;;5.78;3.25;;;15.20;99.90;;;;;;5010039;28;20064;-65
2023/09/03 02:33:20;;;;;;;3.42;2.90;;;15.20;99.90;;;;;;5009580;28;20495;-66
2023/09/03 02:35:52;;;;;;;3.42;2.92;;;15.10;99.90;;;;;;5017993;28;20462;-66
2023/09/03 02:38:24;;;;;;;6.13;3.00;;;15.00;99.90;;;;;;5012133;28;20049;-65
2023/09/03 02:40:56;;;;;;;3.83;2.92;;;15.00;99.90;;;;;;5005069;28;20128;-66
2023/09/03 02:43:28;;;;;;;3.45;3.10;;;15.00;99.90;;;;;;5003579;28;20061;-65
2023/09/03 02:45:59;;;;;;;4.45;3.35;;;15.00;99.90;;;;;;5010103;28;20058;-65
2023/09/03 02:48:31;;;;;;;4.43;3.35;;;15.00;99.90;;;;;;5010892;28;20115;-65
2023/09/03 02:51:03;;;;;;;5.07;3.78;;;14.90;99.90;;;;;;5006915;28;20074;-65
2023/09/03 02:53:30;;;;;;;4.80;3.50;;;15.00;99.90;;;;;;5009171;28;20406;-65
2023/09/03 02:56:02;;;;;;;6.10;3.80;;;14.90;99.90;;;;;;5003668;28;20034;-65
2023/09/03 02:58:34;;;;;;;3.25;2.92;;;15.00;99.90;;;;;;5010701;28;20533;-65
2023/09/03 03:01:07;;;;;;;4.13;3.13;;;15.00;99.90;;;;;;5004306;28;20042;-66
2023/09/03 03:03:41;;;;;;;3.70;3.25;;;15.00;99.90;;;;;;5010416;28;20586;-66
2023/09/03 03:06:14;;;;;;;3.72;3.10;;;15.00;99.90;;;;;;4999673;28;20042;-65
2023/09/03 03:08:46;;;;;;;4.28;3.70;;;15.00;99.90;;;;;;4998515;28;20435;-66
2023/09/03 03:11:18;;;;;;;5.43;3.45;;;15.00;99.90;;;;;;5008497;28;20395;-65
2023/09/03 03:13:54;;;;;;;4.20;3.38;;;15.00;99.90;;;;;;5006656;28;20046;-66
2023/09/03 03:16:38;;;;;;;5.88;3.80;;;14.90;99.90;;;;;;5011950;28;20057;-65
2023/09/03 03:19:13;;;;;;;3.75;3.20;;;14.80;99.90;;;;;;5002478;28;20049;-65
2023/09/03 03:21:46;;;;;;;4.88;3.75;;;14.80;99.90;;;;;;5010518;28;20062;-66
2023/09/03 03:24:19;;;;;;;3.50;3.20;;;14.80;99.90;;;;;;4991047;28;20043;-67
2023/09/03 03:26:51;;;;;;;5.43;3.10;;;14.80;99.90;;;;;;5008950;28;20136;-65
2023/09/03 03:29:22;;;;;;;4.65;3.28;;;14.80;99.90;;;;;;5010416;28;20092;-65
2023/09/03 03:31:54;;;;;;;3.10;2.80;;;14.80;99.90;;;;;;4990865;28;20116;-66
2023/09/03 03:34:27;;;;;;;4.00;3.55;;;14.80;99.90;;;;;;5008137;28;20045;-65
2023/09/03 03:36:59;;;;;;;3.42;2.85;;;14.90;99.90;;;;;;5009550;28;20057;-66
2023/09/03 03:39:26;;;;;;;3.97;3.10;;;14.90;99.90;;;;;;5010796;28;20104;-65
2023/09/03 03:41:57;;;;;;;4.05;3.20;;;14.90;99.90;;;;;;5001210;28;20129;-66
2023/09/03 03:44:30;;;;;;;5.25;3.28;;;14.90;99.90;;;;;;5019088;28;20046;-66
2023/09/03 03:47:03;;;;;;;3.13;2.80;;;14.90;99.90;;;;;;5007574;28;20046;-66
2023/09/03 03:49:35;;;;;;;5.20;3.10;;;14.80;99.90;;;;;;5007378;28;20516;-66
2023/09/03 03:52:07;;;;;;;3.92;3.15;;;14.80;99.90;;;;;;5003307;28;20038;-65
2023/09/03 03:54:35;;;;;;;4.07;3.25;;;14.70;99.90;;;;;;5000690;28;20038;-66
2023/09/03 03:57:07;;;;;;;;;;;14.60;99.90;;;;;;4993570;28;20045;-65
2023/09/03 03:59:39;;;;;;;3.33;2.95;;;14.60;99.90;;;;;;5006934;28;19928;-66
2023/09/03 04:02:11;;;;;;;4.63;2.80;;;14.60;99.90;;;;;;4991992;28;20060;-65
2023/09/03 04:04:37;;;;;;;7.32;4.25;;;14.60;99.90;;;;;;5010917;28;20088;-66
2023/09/03 04:07:05;;;;;;;4.35;2.88;;;14.60;99.90;;;;;;5002962;28;20133;-66
2023/09/03 04:09:37;;;;;;;3.65;2.95;;;14.60;99.90;;;;;;5020563;28;20046;-66
2023/09/03 04:12:09;;;;;;;4.00;3.60;;;14.60;99.90;;;;;;5006681;28;20052;-66
2023/09/03 04:14:41;;;;;;;5.95;3.42;;;14.60;99.90;;;;;;5023310;28;20038;-66
2023/09/03 04:17:12;;;;;;;4.85;2.88;;;14.70;99.90;;;;;;5004133;28;20403;-65
2023/09/03 04:19:47;;;;;;;4.05;3.08;;;14.60;99.90;;;;;;5002180;28;20057;-65
2023/09/03 04:22:19;;;;;;;3.80;3.20;;;14.60;99.90;;;;;;4996160;28;20050;-65
2023/09/03 04:24:51;;;;;;;3.58;2.88;;;14.60;99.90;;;;;;5010997;28;20477;-66
2023/09/03 04:27:18;;;;;;;4.70;3.03;;;14.60;99.90;;;;;;5002924;28;20419;-65
2023/09/03 04:29:49;;;;;;;5.13;3.22;;;14.60;99.90;;;;;;5003911;28;20046;-65
2023/09/03 04:32:21;;;;;;;4.07;3.47;;;14.60;99.90;;;;;;5011046;28;20049;-67
2023/09/03 04:34:54;;;;;;;7.13;3.87;;;14.60;99.90;;;;;;5004016;28;20077;-66
2023/09/03 04:37:21;;;;;;;4.45;3.28;;;14.60;99.90;;;;;;5009559;28;20118;-65
2023/09/03 04:39:53;;;;;;;3.95;3.47;;;14.60;99.90;;;;;;5008741;28;20057;-66
2023/09/03 04:42:21;;;;;;;3.20;2.90;;;14.60;99.90;;;;;;5009088;28;20890;-65
2023/09/03 04:44:53;;;;;;;7.95;3.40;;;14.60;99.90;;;;;;5004884;28;20519;-65
2023/09/03 04:47:25;;;;;;;4.03;3.50;;;14.60;99.90;;;;;;5007889;28;20341;-65
2023/09/03 04:49:57;;;;;;;5.15;3.47;;;14.60;99.90;;;;;;5009509;28;20582;-66
2023/09/03 04:52:29;;;;;;;6.35;3.47;;;14.60;99.90;;;;;;5010891;28;20117;-66
2023/09/03 04:54:56;;;;;;;4.50;2.90;;;14.60;99.90;;;;;;5009655;28;20029;-65
2023/09/03 04:57:28;;;;;;;5.57;3.70;;;14.60;99.90;;;;;;5008880;28;20041;-66
2023/09/03 05:00:01;;;;;;;4.05;3.08;;;14.50;99.90;;;;;;5010815;28;20046;-66
2023/09/03 05:02:33;;;;;;;4.75;3.63;;;14.50;99.90;;;;;;5007480;28;20078;-67
2023/09/03 05:05:06;;;;;;;4.60;3.17;;;14.50;99.90;;;;;;4988999;28;20043;-66
2023/09/03 05:07:38;;;;;;;4.00;3.58;;;14.50;99.90;;;;;;4991394;28;20038;-65
2023/09/03 05:10:05;;;;;;;3.95;3.40;;;14.50;99.90;;;;;;5011125;28;20042;-66
2023/09/03 05:12:40;;;;;;;5.25;3.13;;;14.60;99.90;;;;;;5010381;28;20042;-65
2023/09/03 05:15:13;;;;;;;5.60;3.00;;;14.60;99.90;;;;;;4991774;28;20124;-66
2023/09/03 05:17:45;;;;;;;5.82;3.45;;;14.60;99.90;;;;;;5004482;28;20522;-65
2023/09/03 05:20:16;;;;;;;7.75;3.90;;;14.70;99.90;;;;;;5008045;28;20060;-66
2023/09/03 05:22:49;;;;;;;4.75;3.45;;;14.70;99.90;;;;;;5000758;28;20133;-65
2023/09/03 05:25:21;;;;;;;4.70;3.63;;;14.70;99.90;;;;;;5004652;28;20045;-65
2023/09/03 05:27:53;;;;;;;6.15;3.70;;;14.70;99.90;;;;;;4985311;28;20037;-65
2023/09/03 05:30:20;;;;;;;5.68;3.85;;;14.80;99.90;;;;;;4997786;28;20484;-66
2023/09/03 05:32:52;;;;;;;7.50;4.47;;;14.80;99.90;;;;;;5000550;28;20441;-65
2023/09/03 05:35:25;;;;;;;5.85;3.92;;;14.90;99.90;;;;;;5004419;28;20033;-65
2023/09/03 05:37:57;;;;;;;4.32;3.63;;;14.90;99.90;;;;;;5009542;28;20088;-65
2023/09/03 05:40:29;;;;;;;4.50;3.20;;;14.90;99.90;;;;;;5005331;28;20514;-65
2023/09/03 05:43:01;;;;;;;4.32;3.90;;;15.00;99.90;;;;;;4998282;28;20453;-66
2023/09/03 05:45:33;;;;;;;5.20;3.33;;;15.00;99.90;;;;;;4993228;28;20041;-66
2023/09/03 05:48:05;;;;;;;4.47;3.75;;;15.00;99.90;;;;;;5007470;28;20034;-66
2023/09/03 05:50:32;;;;;;;5.15;3.65;;;15.00;99.90;;;;;;4997315;28;20046;-66
2023/09/03 05:53:04;;;;;;;4.38;3.72;;;15.00;99.90;;;;;;4994346;28;20640;-66
2023/09/03 05:55:39;;;;;;;6.97;4.50;;;15.10;99.90;;;;;;5009975;28;20042;-66
2023/09/03 05:58:11;;;;;;;5.95;4.55;;;15.10;99.90;;;;;;5008113;28;20049;-66
2023/09/03 06:00:45;;;;;;;5.68;4.75;;;15.10;99.90;;;;;;5008407;28;20807;-66
2023/09/03 06:03:13;;;;;;;5.38;4.60;;;15.10;99.90;;;;;;5004660;28;20046;-67
2023/09/03 06:05:42;;;;;;;5.55;4.97;;;15.10;99.90;;;;;;5008715;28;20461;-66
2023/09/03 06:08:14;;;;;;;7.20;4.07;;;15.10;99.90;;;;;;5006963;28;20038;-67
2023/09/03 06:10:45;;;;;;;5.20;4.00;;;15.20;99.90;;;;;;5004039;28;20074;-66
2023/09/03 06:13:12;;;;;;;5.13;4.32;;;15.30;99.90;;;;;;5006373;28;20043;-66
2023/09/03 06:15:44;;;;;;;6.18;4.85;;;15.40;99.90;;;;;;5009655;28;20038;-66
2023/09/03 06:18:16;;;;;;;6.10;4.07;;;15.30;99.90;;;;;;5000526;28;20035;-66
2023/09/03 06:20:49;;;;;;;7.65;4.68;;;15.30;99.90;;;;;;5005545;28;20042;-66
2023/09/03 06:23:21;;;;;;;5.32;3.90;;;15.40;99.90;;;;;;5006025;28;20501;-66
2023/09/03 06:25:53;;;;;;;9.30;4.90;;;15.50;99.90;;;;;;5008712;28;20065;-66
2023/09/03 06:28:26;;;;;;;5.82;4.43;;;15.60;99.90;;;;;;5030689;22;20049;-64
2023/09/03 06:30:59;;;;;;;5.90;4.47;;;15.70;99.90;;;;;;5048834;28;20124;-64
2023/09/03 06:33:31;;;;;;;5.53;4.18;;;15.90;99.90;;;;;;5027087;28;20096;-64
2023/09/03 06:36:03;;;;;;;5.05;4.55;;;16.00;99.90;;;;;;5022604;28;20139;-65
2023/09/03 06:38:35;;;;;;;5.13;3.78;;;16.10;99.90;;;;;;5026175;28;20410;-64
2023/09/03 06:41:07;;;;;;;4.93;3.80;;;16.10;99.90;;;;;;5020901;28;20056;-64
2023/09/03 06:43:39;;;;;;;8.10;5.22;;;16.20;99.90;;;;;;5025452;28;20044;-64
2023/09/03 06:46:11;;;;;;;5.72;4.15;;;16.30;99.90;;;;;;5031432;28;20045;-64
2023/09/03 06:48:42;;;;;;;5.28;4.25;;;16.30;99.90;;;;;;5021258;28;20581;-64
2023/09/03 06:51:14;;;;;;;6.15;4.07;;;16.30;99.90;;;;;;5031518;28;20133;-64
2023/09/03 06:53:46;;;;;;;5.57;4.90;;;16.40;99.90;;;;;;5026976;28;20045;-64
2023/09/03 06:56:17;;;;;;;7.15;4.00;;;16.40;99.90;;;;;;5026451;28;20541;-64
2023/09/03 06:58:49;;;;;;;5.28;4.38;;;16.50;99.90;;;;;;5024108;28;21054;-64
2023/09/03 07:01:21;;;;;;;4.97;4.47;;;16.50;99.90;;;;;;5020679;28;20044;-64
2023/09/03 07:03:53;;;;;;;5.30;4.78;;;16.60;99.90;;;;;;5031009;28;20041;-64
2023/09/03 07:06:25;;;;;;;7.50;5.35;;;16.70;99.90;;;;;;5024567;28;20395;-64
2023/09/03 07:08:56;;;;;;;7.05;5.68;;;16.80;99.90;;;;;;5024749;28;20048;-65
2023/09/03 07:11:28;;;;;;;7.25;6.40;;;16.90;99.90;;;;;;5030547;28;20053;-66
2023/09/03 07:13:55;;;;;;;8.13;6.10;;;17.00;99.90;;;;;;5040144;28;20098;-65
2023/09/03 07:16:27;;;;;;;8.68;6.30;;;17.10;99.90;;;;;;5034692;28;20037;-64
2023/09/03 07:18:54;;;;;;;8.32;6.22;;;17.20;99.90;;;;;;5028013;28;20037;-64
2023/09/03 07:21:26;;;;;;;6.93;5.88;;;17.30;99.90;;;;;;5023812;28;20033;-65
2023/09/03 07:23:58;;;;;;;7.78;5.90;;;17.30;99.90;;;;;;5021254;28;20416;-64
2023/09/03 07:26:24;;;;;;;5.43;4.88;;;17.40;99.90;;;;;;5025133;28;20517;-64
2023/09/03 07:28:57;;;;;;;9.38;6.50;;;17.50;99.90;;;;;;5025646;28;20073;-64
2023/09/03 07:31:23;;;;;;;6.18;5.57;;;17.60;99.90;;;;;;5028382;28;20144;-64
2023/09/03 07:33:58;;;;;;;6.60;5.95;;;17.70;99.90;;;;;;5024884;28;20066;-64
2023/09/03 07:36:29;;;;;;;8.25;6.10;;;17.80;99.90;;;;;;5025578;28;20049;-64
2023/09/03 07:38:56;;;;;;;7.05;6.35;;;18.00;99.90;;;;;;5028518;28;20033;-65
2023/09/03 07:41:28;;;;;;;7.72;6.10;;;18.10;99.90;;;;;;5035152;28;20046;-65
2023/09/03 07:44:00;;;;;;;6.32;5.72;;;18.20;99.90;;;;;;5049646;28;20064;-64
2023/09/03 07:46:32;;;;;;;9.83;6.37;;;18.20;99.90;;;;;;5025024;28;20057;-64
2023/09/03 07:49:04;;;;;;;6.82;6.13;;;18.40;99.90;;;;;;5022841;28;20045;-64
2023/09/03 07:51:36;;;;;;;7.10;6.07;;;18.40;99.90;;;;;;5032025;28;20041;-65
2023/09/03 07:54:09;;;;;;;5.72;5.15;;;18.50;99.90;;;;;;5030602;28;20037;-64
2023/09/03 07:56:36;;;;;;;5.78;5.18;;;18.60;99.90;;;;;;5027916;28;20034;-65
2023/09/03 07:59:08;;;;;;;8.38;6.15;;;18.70;99.90;;;;;;5031350;28;20572;-64
2023/09/03 08:01:40;;;;;;;8.32;5.07;;;18.70;99.90;;;;;;5046053;28;20030;-65
2023/09/03 08:04:11;;;;;;;7.43;5.60;;;18.80;99.90;;;;;;5028187;28;20116;-65
2023/09/03 08:06:43;;;;;;;5.85;5.28;;;18.90;99.90;;;;;;5037357;28;20113;-65
2023/09/03 08:09:15;;;;;;;7.30;5.35;;;19.00;99.90;;;;;;5030008;28;20041;-65
2023/09/03 08:11:43;;;;;;;5.47;4.80;;;19.10;99.90;;;;;;5028320;28;20141;-65
2023/09/03 08:14:10;;;;;;;6.40;4.90;;;19.10;99.90;;;;;;5028943;28;20587;-65
2023/09/03 08:16:42;;;;;;;6.53;5.07;;;19.20;99.90;;;;;;5040435;28;20053;-65
2023/09/03 08:19:14;;;;;;;8.23;5.68;;;19.20;99.90;;;;;;5024696;28;20095;-66
2023/09/03 08:21:47;;;;;;;6.20;5.50;;;19.30;99.90;;;;;;5027602;28;20544;-65
2023/09/03 08:24:19;;;;;;;5.78;5.10;;;19.40;99.90;;;;;;5021936;28;20128;-65
2023/09/03 08:26:51;;;;;;;8.20;5.35;;;19.40;99.90;;;;;;5027261;28;20048;-65
2023/09/03 08:29:23;;;;;;;11.82;8.05;;;19.50;99.90;;;;;;5027517;28;20037;-65
2023/09/03 08:31:54;;;;;;;7.40;5.32;;;19.60;99.90;;;;;;5023898;28;20041;-65
2023/09/03 08:34:26;;;;;;;8.52;6.05;;;19.70;99.90;;;;;;5022578;28;20030;-65
2023/09/03 08:36:58;;;;;;;6.05;5.45;;;19.80;99.90;;;;;;5024171;28;20044;-65
2023/09/03 08:39:25;;;;;;;8.35;5.70;;;20.00;99.90;;;;;;5021559;28;20117;-65
2023/09/03 08:41:58;;;;;;;9.15;4.88;;;20.10;99.90;;;;;;5026583;28;20045;-65
2023/09/03 08:44:45;;;;;;;4.75;4.30;;;20.10;99.90;;;;;;5029301;28;20502;-65
2023/09/03 08:47:18;;;;;;;5.93;5.38;;;20.30;99.90;;;;;;5020176;28;20041;-65
2023/09/03 08:49:50;;;;;;;7.83;4.97;;;20.40;99.90;;;;;;5040738;28;20054;-65
2023/09/03 08:52:22;;;;;;;5.10;4.55;;;20.50;99.90;;;;;;5027140;28;20033;-65
2023/09/03 08:54:55;;;;;;;5.60;4.25;;;20.60;99.90;;;;;;5028163;28;20045;-65
2023/09/03 08:57:30;;;;;;;4.88;4.38;;;20.70;99.90;;;;;;5026463;28;20030;-65
2023/09/03 08:59:57;;;;;;;5.68;4.97;;;20.80;99.90;;;;;;5028404;28;20037;-65
2023/09/03 09:02:30;;;;;;;5.70;4.60;;;20.90;99.90;;;;;;5032913;28;20069;-64
2023/09/03 09:05:05;;;;;;;4.40;4.00;;;20.90;99.90;;;;;;5032281;28;20136;-65
2023/09/03 09:07:36;;;;;;;4.43;3.95;;;21.00;99.90;;;;;;5026249;28;20172;-64
2023/09/03 09:10:10;;;;;;;4.00;3.60;;;21.10;99.90;;;;;;5026909;28;20076;-65
2023/09/03 09:13:17;;;;;;;5.30;2.80;;;21.20;99.90;;;;;;5023689;28;20038;-65
2023/09/03 09:15:44;;;;;;;5.88;2.95;;;21.40;99.90;;;;;;5025401;28;20108;-65
2023/09/03 09:18:15;;;;;;;2.50;2.30;;;21.40;99.90;;;;;;5027417;28;20045;-65
2023/09/03 09:20:49;;;;;;;4.15;3.00;;;21.50;99.90;;;;;;5024077;28;20041;-65
2023/09/03 09:23:22;;;;;;;5.30;2.78;;;21.60;99.90;;;;;;5028636;28;20056;-65
2023/09/03 09:25:55;;;;;;;;;;;21.70;99.90;;;;;;5022355;28;20057;-65
2023/09/03 09:28:27;;;;;;;3.75;2.30;;;21.70;99.90;;;;;;5026530;28;20449;-65
2023/09/03 09:30:58;;;;;;;3.38;3.08;;;21.70;99.90;;;;;;5029269;28;20033;-65
2023/09/03 09:33:26;;;;;;;2.53;2.30;;;21.70;99.90;;;;;;5036641;28;20077;-65
2023/09/03 09:36:13;;;;;;;3.10;2.60;;;21.70;99.90;;;;;;5017478;28;20046;-64
2023/09/03 09:38:45;;;;;;;3.10;2.20;;;21.80;99.90;;;;;;5022093;28;20066;-65
2023/09/03 09:41:27;;;;;;;3.38;2.60;;;21.80;99.90;;;;;;5029270;28;20421;-65
2023/09/03 09:43:58;;;;;;;2.72;2.25;;;21.90;99.90;;;;;;5037727;28;20765;-65
2023/09/03 09:46:30;;;;;;;3.60;2.28;;;21.80;99.90;;;;;;5036230;28;20045;-65
2023/09/03 09:49:02;;;;;;;3.03;2.13;;;21.90;99.90;;;;;;5019421;28;20788;-65
2023/09/03 09:51:34;;;;;;;3.10;2.47;;;21.90;99.90;;;;;;5028190;28;20037;-65
2023/09/03 09:54:06;;;;;;;4.28;2.10;;;22.10;99.90;;;;;;5025613;28;20041;-65
2023/09/03 09:56:35;;;;;;;3.10;1.90;;;22.20;99.90;;;;;;5034310;28;20446;-65
2023/09/03 09:59:10;;;;;;;2.13;1.80;;;22.20;99.90;;;;;;5018909;28;20037;-64
2023/09/03 10:01:45;;;;;;;3.40;1.88;;;22.30;99.90;;;;;;5026204;28;20052;-65
2023/09/03 10:04:25;;;;;;;3.80;2.55;;;22.40;99.90;;;;;;5028700;28;20037;-65
2023/09/03 10:06:58;;;;;;;3.65;2.47;;;22.40;99.90;;;;;;5032938;28;20050;-65
2023/09/03 10:09:31;;;;;;;3.25;2.60;;;22.50;99.90;;;;;;5024795;28;20457;-65
2023/09/03 10:12:07;;;;;;;2.53;2.33;;;22.60;99.90;;;;;;5025439;28;20044;-65
2023/09/03 10:14:35;;;;;;;3.08;2.03;;;22.80;99.90;;;;;;5031868;28;20042;-65
2023/09/03 10:17:08;;;;;;;2.90;2.47;;;22.80;99.90;;;;;;5031890;28;20043;-65
2023/09/03 10:19:43;;;;;;;4.78;2.38;;;22.80;99.90;;;;;;5017809;28;20042;-65
2023/09/03 10:22:18;;;;;;;2.85;2.30;;;23.00;99.90;;;;;;5019801;28;20070;-65
2023/09/03 10:25:00;;;;;;;2.40;2.10;;;23.10;99.90;;;;;;5012731;28;20133;-65
2023/09/03 10:27:29;;;;;;;2.90;2.28;;;23.20;99.90;;;;;;5037263;28;20053;-65
2023/09/03 10:30:05;;;;;;;2.67;2.25;;;23.30;99.90;;;;;;5030164;28;20049;-65
2023/09/03 10:32:38;;;;;;;3.65;2.50;;;23.30;99.90;;;;;;5023853;28;20124;-65
2023/09/03 10:35:11;;;;;;;3.92;2.20;;;23.30;99.90;;;;;;5040031;28;20116;-65
2023/09/03 10:37:43;;;;;;;2.75;2.42;;;23.30;99.90;;;;;;5041972;28;20056;-65
2023/09/03 10:40:23;;;;;;;4.22;2.47;;;23.30;99.90;;;;;;5022207;28;20037;-65
2023/09/03 10:43:18;;;;;;;4.43;2.67;;;23.50;99.90;;;;;;5036230;28;20625;-64
2023/09/03 10:46:08;;;;;;;2.60;2.03;;;23.50;99.90;;;;;;5021993;28;20541;-64
2023/09/03 10:48:40;;;;;;;2.25;2.05;;;23.40;99.90;;;;;;5025613;28;20053;-64
2023/09/03 10:51:32;;;;;;;3.33;2.33;;;23.40;99.90;;;;;;5024137;28;20406;-64
2023/09/03 10:54:19;;;;;;;4.43;2.20;;;23.40;99.90;;;;;;5035299;28;20049;-65
2023/09/03 10:57:12;;;;;;;2.28;2.08;;;23.50;99.90;;;;;;5043965;28;20050;-64
2023/09/03 11:00:05;;;;;;;2.45;2.22;;;23.50;99.90;;;;;;5043389;28;20044;-65
2023/09/03 11:02:39;;;;;;;2.38;2.17;;;23.60;99.90;;;;;;5045302;28;20564;-64
2023/09/03 11:05:28;;;;;;;3.13;2.83;;;23.60;99.90;;;;;;5027950;28;20044;-65
2023/09/03 11:08:20;;;;;;;2.25;1.92;;;23.80;99.90;;;;;;5027337;28;20128;-65
2023/09/03 11:10:54;;;;;;;2.38;2.17;;;24.00;99.90;;;;;;5020677;28;20474;-65
2023/09/03 11:13:27;;;;;;;3.15;2.10;;;24.00;99.90;;;;;;5025722;28;20042;-65
2023/09/03 11:15:59;;;;;;;2.20;2.00;;;24.10;99.90;;;;;;5025209;28;20418;-64
2023/09/03 11:18:32;;;;;;;4.10;2.10;;;24.20;99.90;;;;;;5030846;28;20045;-64
2023/09/03 11:21:04;;;;;;;3.28;2.03;;;24.30;99.90;;;;;;5032944;28;20050;-64
2023/09/03 11:23:35;;;;;;;3.95;2.03;;;24.50;99.90;;;;;;5041624;28;20048;-65
2023/09/03 11:26:13;;;;;;;2.45;1.73;;;24.60;99.90;;;;;;5033788;28;20057;-65
2023/09/03 11:28:47;;;;;;;3.92;2.20;;;24.60;99.90;;;;;;5038150;28;20128;-65
2023/09/03 11:31:20;;;;;;;3.55;1.60;;;24.60;99.90;;;;;;5050270;28;20053;-65
2023/09/03 11:33:52;;;;;;;1.90;1.60;;;24.50;99.90;;;;;;5032117;28;20042;-65
2023/09/03 11:36:24;;;;;;;2.53;2.00;;;24.40;99.90;;;;;;5034647;28;20378;-65
2023/09/03 11:38:58;;;;;;;2.33;1.90;;;24.40;99.90;;;;;;5051847;28;20570;-64
2023/09/03 11:41:30;;;;;;;1.85;1.65;;;24.40;99.90;;;;;;5043819;28;20045;-65
2023/09/03 11:44:03;;;;;;;2.10;1.90;;;24.50;99.90;;;;;;5040862;28;20421;-65
2023/09/03 11:46:35;;;;;;;2.38;1.45;;;24.60;99.90;;;;;;5031748;28;20048;-65
2023/09/03 11:49:04;;;;;;;2.58;1.80;;;24.70;99.90;;;;;;5036689;28;20063;-65
2023/09/03 11:51:38;;;;;;;2.63;2.05;;;24.70;99.90;;;;;;5039458;28;20040;-65
2023/09/03 11:54:22;;;;;;;2.78;2.08;;;24.80;99.90;;;;;;5032541;28;20037;-65
2023/09/03 11:56:57;;;;;;;2.13;1.65;;;24.80;99.90;;;;;;5032054;28;20566;-65
2023/09/03 11:59:30;;;;;;;3.10;1.70;;;24.90;99.90;;;;;;5036656;28;20516;-65
2023/09/03 12:02:02;;;;;;;3.03;1.67;;;25.00;99.90;;;;;;5037205;28;20041;-65
2023/09/03 12:04:34;;;;;;;3.40;1.80;;;25.00;99.90;;;;;;5035951;28;20045;-65
2023/09/03 12:07:15;;;;;;;2.20;2.00;;;25.10;99.90;;;;;;5034860;28;20052;-65
2023/09/03 12:09:43;;;;;;;2.00;1.80;;;25.10;99.90;;;;;;5034647;28;20052;-65
2023/09/03 12:12:15;;;;;;;1.73;1.45;;;25.20;99.90;;;;;;5036000;28;20148;-64
2023/09/03 12:14:47;;;;;;;1.67;1.35;;;25.00;99.90;;;;;;5036382;28;20037;-65
2023/09/03 12:17:26;;;;;;;2.80;1.73;;;24.90;99.90;;;;;;5035182;28;20045;-65
2023/09/03 12:19:58;;;;;;;2.25;1.10;;;24.80;99.90;;;;;;5031249;28;20410;-65
2023/09/03 12:22:27;;;;;;;3.72;1.20;;;25.00;99.90;;;;;;5036151;28;20099;-65
2023/09/03 12:24:54;;;;;;;1.10;1.00;;;25.00;99.90;;;;;;5035465;28;20080;-65
2023/09/03 12:27:25;;;;;;;1.10;0.93;;;25.10;99.90;;;;;;5042762;28;20048;-64
2023/09/03 12:29:57;;;;;;;1.60;0.90;;;25.20;99.90;;;;;;5038630;28;20051;-64
2023/09/03 12:32:33;;;;;;;1.35;1.00;;;25.20;99.90;;;;;;5028486;28;20526;-65
2023/09/03 12:35:16;;;;;;;1.98;1.10;;;25.30;99.90;;;;;;5038409;28;20043;-65
2023/09/03 12:37:48;;;;;;;1.10;0.90;;;25.40;99.90;;;;;;5028805;28;20037;-65
2023/09/03 12:40:19;;;;;;;1.98;1.17;;;25.50;99.90;;;;;;5033130;28;20048;-65
2023/09/03 12:42:51;;;;;;;2.53;1.27;;;25.60;99.90;;;;;;5034065;28;20140;-65
2023/09/03 12:45:23;;;;;;;2.33;1.42;;;25.70;99.90;;;;;;5031754;28;20128;-65
2023/09/03 12:47:55;;;;;;;2.03;0.90;;;25.70;99.90;;;;;;5033166;28;20042;-65
2023/09/03 12:50:27;;;;;;;1.08;0.98;;;25.80;99.90;;;;;;5031638;28;20438;-65
2023/09/03 12:52:56;;;;;;;1.58;1.08;;;25.90;99.90;;;;;;5027176;28;20037;-64
2023/09/03 12:55:27;;;;;;;1.10;0.80;;;26.00;99.90;;;;;;5034116;28;20065;-64
2023/09/03 12:57:59;;;;;;;1.63;1.10;;;26.10;99.90;;;;;;5035327;28;20045;-65
2023/09/03 13:00:27;;;;;;;1.48;1.20;;;26.10;99.90;;;;;;5041934;28;20125;-64
2023/09/03 13:02:59;;;;;;;2.03;1.10;;;26.00;99.90;;;;;;5034051;28;20041;-64
2023/09/03 13:05:30;;;;;;;2.25;1.20;;;26.00;99.90;;;;;;5035065;28;20288;-65
2023/09/03 13:08:02;;;;;;;2.55;1.20;;;26.00;99.90;;;;;;5034020;28;20536;-65
2023/09/03 13:10:29;;;;;;;1.08;0.93;;;26.00;99.90;;;;;;5035768;28;20509;-64
2023/09/03 13:13:01;;;;;;;1.92;1.17;;;25.90;99.90;;;;;;5036959;28;20036;-65
2023/09/03 13:15:33;;;;;;;2.05;1.20;;;25.90;99.90;;;;;;5031781;28;20038;-65
2023/09/03 13:18:05;;;;;;;1.88;1.23;;;26.00;99.90;;;;;;5017728;28;20057;-64